This is the latest recevied weather packets stored in our database for station/object KF7OVD-WX. If no packets are shown the sender has not sent any weather packets the latest 10 day(s).
| Time | Temp. | Humidity | Pressure | Rain* | Wind** | Luminosity | Snow |
|---|---|---|---|---|---|---|---|
| 1778097620 | 23.33° C | 33% | 1022.9 hPa | 0 mm | - | - | - |
| 1778091929 | 22.22° C | 38% | 1023 hPa | 0 mm | - | - | - |
| 1778091627 | 22.22° C | 37% | 1022.9 hPa | 0 mm | - | - | - |
| 1778091023 | 22.22° C | 38% | 1022.8 hPa | 0 mm | - | - | - |
| 1778089818 | 21.67° C | 38% | 1022.7 hPa | 0 mm | - | - | - |
| 1778088930 | 21.11° C | 39% | 1022.5 hPa | 0 mm | - | - | - |
| 1778086227 | 20° C | 41% | 1022.2 hPa | 0 mm | - | - | - |
| 1778085643 | 20° C | 40% | 1022.2 hPa | 0 mm | - | - | - |
| 1778083522 | 17.78° C | 43% | 1022 hPa | 0 mm | - | - | - |
| 1778082017 | 16.11° C | 46% | 1021.9 hPa | 0 mm | - | - | - |
| 1778081431 | 16.11° C | 46% | 1021.8 hPa | 0 mm | - | - | - |
| 1778080826 | 14.44° C | 48% | 1021.8 hPa | 0 mm | - | - | - |
| 1778080523 | 15.56° C | 47% | 1021.8 hPa | 0 mm | - | - | - |
| 1778079616 | 13.89° C | 49% | 1021.6 hPa | 0 mm | - | - | - |
| 1778078143 | 8.89° C | 59% | 1021.4 hPa | 0 mm | - | - | - |
| 1778077217 | 7.78° C | 61% | 1021.2 hPa | 0 mm | - | - | - |
| 1778076328 | 7.22° C | 62% | 1021 hPa | 0 mm | - | - | - |
| 1778075723 | 5.56° C | 65% | 1020.8 hPa | 0 mm | - | - | - |
| 1778075441 | 5.56° C | 66% | 1020.8 hPa | 0 mm | - | - | - |
| 1778074816 | 2.78° C | 74% | 1020.8 hPa | 0 mm | - | - | - |
| 1778069722 | 2.22° C | 72% | 1019.4 hPa | 0 mm | - | - | - |
| 1778067928 | 2.78° C | 69% | 1019.2 hPa | 0 mm | - | - | - |
| 1778067626 | 3.33° C | 69% | 1019.2 hPa | 0 mm | - | - | - |
| 1778065819 | 3.89° C | 69% | 1019.1 hPa | 0 mm | - | - | - |
| 1778063418 | 5° C | 64% | 1018.7 hPa | 0 mm | - | - | - |
* Rain latest hour (hover to see other rain measurements)
** Current wind speed in m/s (hover to see current wind gust speed)